createdAt,value
2022-08-13T00:00:44.590Z,20.50
2022-08-13T00:04:00.962Z,20.40
2022-08-13T00:06:03.926Z,20.30
2022-08-13T00:08:34.028Z,20.30
2022-08-13T00:11:01.150Z,20.20
2022-08-13T00:13:43.777Z,20.10
2022-08-13T00:16:11.949Z,20.10
2022-08-13T00:18:41.398Z,20.10
2022-08-13T00:21:09.504Z,20.10
2022-08-13T00:23:57.802Z,20.10
2022-08-13T00:26:30.780Z,20.00
2022-08-13T00:29:02.450Z,20.10
2022-08-13T00:31:32.037Z,20.00
2022-08-13T00:34:00.249Z,19.90
2022-08-13T00:36:37.788Z,20.00
2022-08-13T00:39:07.980Z,20.10
2022-08-13T00:41:58.938Z,20.00
2022-08-13T00:44:26.800Z,19.80
2022-08-13T00:47:15.225Z,19.90
2022-08-13T00:49:49.915Z,19.90
2022-08-13T00:52:31.964Z,19.90
2022-08-13T00:55:02.429Z,19.90
2022-08-13T00:57:30.528Z,19.80
2022-08-13T00:59:58.118Z,19.90
2022-08-13T01:02:32.739Z,20.00
2022-08-13T01:05:03.181Z,20.00
2022-08-13T01:07:47.515Z,20.00
2022-08-13T01:10:20.966Z,20.00
2022-08-13T01:12:52.323Z,20.10
2022-08-13T01:15:20.422Z,20.10
2022-08-13T01:17:50.465Z,20.20
2022-08-13T01:20:32.455Z,20.20
2022-08-13T01:23:05.879Z,20.20
2022-08-13T01:25:43.063Z,20.30
2022-08-13T01:28:24.913Z,20.20
2022-08-13T01:30:52.637Z,20.20
2022-08-13T01:33:20.793Z,20.20
2022-08-13T01:35:52.356Z,20.10
2022-08-13T01:38:27.399Z,20.20
2022-08-13T01:40:55.533Z,20.20
2022-08-13T01:43:24.542Z,20.30
2022-08-13T01:45:53.324Z,20.30
2022-08-13T01:48:58.571Z,20.30
2022-08-13T01:51:40.245Z,20.20
2022-08-13T01:54:37.988Z,20.30
2022-08-13T01:57:06.203Z,20.30
2022-08-13T02:00:01.451Z,20.30
2022-08-13T02:02:34.419Z,20.30
2022-08-13T02:06:22.199Z,20.30
2022-08-13T02:08:07.621Z,20.40
2022-08-13T02:10:37.111Z,20.40
2022-08-13T02:13:09.894Z,20.30
2022-08-13T02:15:42.467Z,20.40
2022-08-13T02:18:27.379Z,20.30
2022-08-13T02:20:59.253Z,20.30
2022-08-13T02:23:59.649Z,19.90
2022-08-13T02:26:26.772Z,19.50
2022-08-13T02:29:01.008Z,19.00
2022-08-13T02:32:14.677Z,18.80
2022-08-13T02:34:17.997Z,18.60
2022-08-13T02:37:00.007Z,18.60
2022-08-13T02:39:43.426Z,18.60
2022-08-13T02:42:16.183Z,18.50
2022-08-13T02:44:50.849Z,18.60
2022-08-13T02:47:20.509Z,18.80
2022-08-13T02:50:00.889Z,18.80
2022-08-13T02:52:30.661Z,18.90
2022-08-13T02:54:58.371Z,18.90
2022-08-13T02:57:27.408Z,19.10
2022-08-13T03:00:01.751Z,19.10
2022-08-13T03:02:33.781Z,19.30
2022-08-13T03:05:02.840Z,19.10
2022-08-13T03:07:30.933Z,19.00
2022-08-13T03:10:20.011Z,19.10
2022-08-13T03:13:16.873Z,19.00
2022-08-13T03:15:55.080Z,18.90
2022-08-13T03:18:39.244Z,19.00
2022-08-13T03:21:33.140Z,18.80
2022-08-13T03:24:11.134Z,18.90
2022-08-13T03:26:39.371Z,18.80
2022-08-13T03:29:08.317Z,18.70
2022-08-13T03:31:52.747Z,18.70
2022-08-13T03:34:23.312Z,18.70
2022-08-13T03:36:50.741Z,18.60
2022-08-13T03:39:18.455Z,18.50
2022-08-13T03:41:51.212Z,18.60
2022-08-13T03:44:20.254Z,18.70
2022-08-13T03:46:51.209Z,18.80
2022-08-13T03:49:20.753Z,18.80
2022-08-13T03:51:48.471Z,18.70
2022-08-13T03:54:17.110Z,18.70
2022-08-13T03:56:56.230Z,18.80
2022-08-13T03:59:46.305Z,18.90
2022-08-13T04:02:18.794Z,19.00
2022-08-13T04:04:51.624Z,19.10
2022-08-13T04:07:26.194Z,19.10
2022-08-13T04:09:56.420Z,19.20
2022-08-13T04:12:24.169Z,19.10
2022-08-13T04:15:01.655Z,19.10
2022-08-13T04:17:29.428Z,19.10
2022-08-13T04:19:59.364Z,19.10
2022-08-13T04:22:29.140Z,19.20
2022-08-13T04:24:56.520Z,19.30
2022-08-13T04:27:24.406Z,19.30
2022-08-13T04:29:52.675Z,19.50
2022-08-13T04:32:26.011Z,19.50
2022-08-13T04:34:58.395Z,19.50
2022-08-13T04:37:35.247Z,19.40
2022-08-13T04:40:29.491Z,19.20
2022-08-13T04:42:58.055Z,19.20
2022-08-13T04:45:26.598Z,19.40
2022-08-13T04:48:00.998Z,19.40
2022-08-13T04:50:35.660Z,19.30
2022-08-13T04:53:07.245Z,19.20
2022-08-13T04:55:36.833Z,19.20
2022-08-13T04:58:25.587Z,19.10
2022-08-13T05:00:53.643Z,19.20
2022-08-13T05:03:24.711Z,19.30
2022-08-13T05:06:00.394Z,19.00
2022-08-13T05:08:29.361Z,19.00
2022-08-13T05:10:58.365Z,18.80
2022-08-13T05:13:43.029Z,18.80
2022-08-13T05:16:12.579Z,18.70
2022-08-13T05:18:44.237Z,18.60
2022-08-13T05:21:17.819Z,18.80
2022-08-13T05:26:18.646Z,18.70
2022-08-13T05:26:56.618Z,18.70
2022-08-13T05:31:54.753Z,18.70
2022-08-13T05:34:30.672Z,18.70
2022-08-13T05:38:15.776Z,18.80
2022-08-13T05:39:49.508Z,18.80
2022-08-13T05:42:26.938Z,18.70
2022-08-13T05:45:01.081Z,18.70
2022-08-13T05:47:37.958Z,18.70
2022-08-13T05:50:17.568Z,18.60
2022-08-13T05:52:59.310Z,18.60
2022-08-13T05:56:11.483Z,18.60
2022-08-13T05:58:13.800Z,18.60
2022-08-13T06:01:12.288Z,18.60
2022-08-13T06:04:31.665Z,18.60
2022-08-13T06:06:34.042Z,18.70
2022-08-13T06:09:08.970Z,18.70
2022-08-13T06:12:08.162Z,18.80
2022-08-13T06:14:36.179Z,18.80
2022-08-13T06:17:12.189Z,18.70
2022-08-13T06:19:45.271Z,18.80
2022-08-13T06:22:20.668Z,18.90
2022-08-13T06:24:52.929Z,18.90
2022-08-13T06:27:55.561Z,18.90
2022-08-13T06:30:28.096Z,18.90
2022-08-13T06:34:06.062Z,19.00
2022-08-13T06:35:56.151Z,19.10
2022-08-13T06:38:34.245Z,19.00
2022-08-13T06:41:03.580Z,18.90
2022-08-13T06:43:47.480Z,19.00
2022-08-13T06:46:29.852Z,19.10
2022-08-13T06:48:59.372Z,19.10
2022-08-13T06:51:29.759Z,19.10
2022-08-13T06:54:22.155Z,19.30
2022-08-13T06:57:08.001Z,19.20
2022-08-13T06:59:55.121Z,19.30
2022-08-13T07:02:30.119Z,19.20
2022-08-13T07:04:59.533Z,19.30
2022-08-13T07:07:27.763Z,19.30
2022-08-13T07:09:55.893Z,19.30
2022-08-13T07:12:25.885Z,19.30
2022-08-13T07:14:59.002Z,19.30
2022-08-13T07:17:31.228Z,19.30
2022-08-13T07:20:05.283Z,19.50
2022-08-13T07:24:38.502Z,19.70
2022-08-13T07:25:55.844Z,20.00
2022-08-13T07:28:41.460Z,20.10
2022-08-13T07:31:10.680Z,20.30
2022-08-13T07:33:54.005Z,20.50
2022-08-13T07:36:26.539Z,20.50
2022-08-13T07:38:54.081Z,20.50
2022-08-13T07:41:22.303Z,20.40
2022-08-13T07:44:02.601Z,20.30
2022-08-13T07:46:35.789Z,20.40
2022-08-13T07:49:24.355Z,20.80
2022-08-13T07:52:11.689Z,20.90
2022-08-13T07:54:39.831Z,20.90
2022-08-13T08:00:03.838Z,20.90
2022-08-13T08:02:24.273Z,20.80
2022-08-13T08:04:54.745Z,20.90
2022-08-13T08:07:23.653Z,21.10
2022-08-13T08:09:59.380Z,21.10
2022-08-13T08:12:47.157Z,21.10
2022-08-13T08:15:25.979Z,21.00
2022-08-13T08:18:13.556Z,20.80
2022-08-13T08:21:47.402Z,20.70
2022-08-13T08:24:02.079Z,20.50
2022-08-13T08:26:31.541Z,20.20
2022-08-13T08:29:00.748Z,20.00
2022-08-13T08:32:00.290Z,19.70
2022-08-13T08:34:18.734Z,19.60
2022-08-13T08:36:49.968Z,19.60
2022-08-13T08:39:38.720Z,19.60
2022-08-13T08:42:36.562Z,19.50
2022-08-13T08:45:13.393Z,19.60
2022-08-13T08:47:48.269Z,19.70
2022-08-13T08:50:29.500Z,19.70
2022-08-13T08:54:12.452Z,19.70
2022-08-13T08:56:23.490Z,19.80
2022-08-13T08:58:56.507Z,19.90
2022-08-13T09:01:27.063Z,19.70
2022-08-13T09:03:58.759Z,19.70
2022-08-13T09:06:33.806Z,19.60
2022-08-13T09:09:21.727Z,19.70
2022-08-13T09:11:55.931Z,19.70
2022-08-13T09:14:33.665Z,19.90
2022-08-13T09:17:04.504Z,19.80
2022-08-13T09:19:46.393Z,19.80
2022-08-13T09:22:24.028Z,20.10
2022-08-13T09:24:55.028Z,20.30
2022-08-13T09:27:23.274Z,20.40
2022-08-13T09:30:00.741Z,20.60
2022-08-13T09:32:32.499Z,20.90
2022-08-13T09:35:04.988Z,20.90
2022-08-13T09:37:55.260Z,20.80
2022-08-13T09:40:32.526Z,21.10
2022-08-13T09:43:43.857Z,21.60
2022-08-13T09:46:20.016Z,21.80
2022-08-13T09:48:48.119Z,21.60
2022-08-13T09:51:55.123Z,21.30
2022-08-13T09:54:07.227Z,21.60
2022-08-13T09:56:39.382Z,21.60
2022-08-13T09:59:15.750Z,21.60
2022-08-13T10:01:58.567Z,21.50
2022-08-13T10:04:28.976Z,21.50
2022-08-13T10:07:01.131Z,21.30
2022-08-13T10:09:29.241Z,21.20
2022-08-13T10:12:16.776Z,21.40
2022-08-13T10:14:55.231Z,22.20
2022-08-13T10:17:42.231Z,22.90
2022-08-13T10:20:12.644Z,23.20
2022-08-13T10:22:43.749Z,23.60
2022-08-13T10:25:11.919Z,23.70
2022-08-13T10:27:48.431Z,24.10
2022-08-13T10:30:59.567Z,24.10
2022-08-13T10:33:14.216Z,24.20
2022-08-13T10:35:43.043Z,24.10
2022-08-13T10:38:19.458Z,23.60
2022-08-13T10:40:47.018Z,23.60
2022-08-13T10:43:22.176Z,24.00
2022-08-13T10:45:52.116Z,23.60
2022-08-13T10:48:19.753Z,23.40
2022-08-13T10:50:50.345Z,23.40
2022-08-13T10:53:42.383Z,23.70
2022-08-13T10:56:11.655Z,24.00
2022-08-13T10:58:46.436Z,24.60
2022-08-13T11:01:18.281Z,25.00
2022-08-13T11:03:48.975Z,25.10
2022-08-13T11:06:16.908Z,24.90
2022-08-13T11:08:45.973Z,24.90
2022-08-13T11:11:29.917Z,24.30
2022-08-13T11:14:04.153Z,24.40
2022-08-13T11:16:34.569Z,24.50
2022-08-13T11:19:02.900Z,24.90
2022-08-13T11:22:18.804Z,24.60
2022-08-13T11:24:19.641Z,24.10
2022-08-13T11:26:48.367Z,23.40
2022-08-13T11:29:16.694Z,23.70
2022-08-13T11:31:59.066Z,23.80
2022-08-13T11:34:27.987Z,24.10
2022-08-13T11:36:54.928Z,23.60
2022-08-13T11:39:37.434Z,23.30
2022-08-13T11:42:05.674Z,23.50
2022-08-13T11:44:33.789Z,23.90
2022-08-13T11:47:01.398Z,24.00
2022-08-13T11:49:46.039Z,23.40
2022-08-13T11:52:28.565Z,23.20
2022-08-13T11:54:56.537Z,23.20
2022-08-13T11:57:23.679Z,23.60
2022-08-13T11:59:54.848Z,23.90
2022-08-13T12:02:26.779Z,23.80
2022-08-13T12:04:59.894Z,24.30
2022-08-13T12:07:27.616Z,24.80
2022-08-13T12:09:58.774Z,25.30
2022-08-13T12:12:29.315Z,25.40
2022-08-13T12:14:59.546Z,25.70
2022-08-13T12:17:51.806Z,26.20
2022-08-13T12:20:21.143Z,26.10
2022-08-13T12:22:58.052Z,25.80
2022-08-13T12:25:35.774Z,25.50
2022-08-13T12:28:27.222Z,26.00
2022-08-13T12:30:59.313Z,26.30
2022-08-13T12:33:39.383Z,26.20
2022-08-13T12:36:16.192Z,26.40
2022-08-13T12:38:49.988Z,26.90
2022-08-13T12:41:41.931Z,27.40
2022-08-13T12:45:05.073Z,27.10
2022-08-13T12:47:03.422Z,26.50
2022-08-13T12:49:48.478Z,26.20
2022-08-13T12:52:18.492Z,26.20
2022-08-13T12:55:03.367Z,26.30
2022-08-13T12:58:03.590Z,26.30
2022-08-13T13:00:23.054Z,26.20
2022-08-13T13:03:02.307Z,25.90
2022-08-13T13:05:39.011Z,25.70
2022-08-13T13:08:30.246Z,25.80
2022-08-13T13:11:14.442Z,25.80
2022-08-13T13:13:54.294Z,25.60
2022-08-13T13:16:36.090Z,25.60
2022-08-13T13:19:10.506Z,25.70
2022-08-13T13:21:41.995Z,25.80
2022-08-13T13:24:18.431Z,25.70
2022-08-13T13:26:51.256Z,25.70
2022-08-13T13:29:24.569Z,25.80
2022-08-13T13:32:46.027Z,25.80
2022-08-13T13:34:38.735Z,25.90
2022-08-13T13:37:09.723Z,26.10
2022-08-13T13:39:44.294Z,26.00
2022-08-13T13:42:17.308Z,26.20
2022-08-13T13:44:45.450Z,26.20
2022-08-13T13:47:15.236Z,26.00
2022-08-13T13:49:44.159Z,26.20
2022-08-13T13:52:12.150Z,26.30
2022-08-13T13:54:39.822Z,26.60
2022-08-13T13:57:25.425Z,26.60
2022-08-13T13:59:55.289Z,26.70
2022-08-13T14:02:32.101Z,26.40
2022-08-13T14:05:19.466Z,26.10
2022-08-13T14:07:52.676Z,26.00
2022-08-13T14:10:21.105Z,26.00
2022-08-13T14:13:06.359Z,26.30
2022-08-13T14:15:37.039Z,26.40
2022-08-13T14:18:26.653Z,26.50
2022-08-13T14:20:57.035Z,26.50
2022-08-13T14:23:39.222Z,26.70
2022-08-13T14:26:14.803Z,27.10
2022-08-13T14:28:47.810Z,27.40
2022-08-13T14:31:16.556Z,27.50
2022-08-13T14:34:00.675Z,27.50
2022-08-13T14:36:34.122Z,27.00
2022-08-13T14:39:22.090Z,26.50
2022-08-13T14:41:50.308Z,26.30
2022-08-13T14:47:13.205Z,27.40
2022-08-13T14:49:55.428Z,27.20
2022-08-13T14:52:38.221Z,26.70
2022-08-13T14:55:09.150Z,26.30
2022-08-13T14:57:40.990Z,26.30
2022-08-13T15:00:25.100Z,26.30
2022-08-13T15:03:16.227Z,26.30
2022-08-13T15:05:53.693Z,26.20
2022-08-13T15:08:32.693Z,25.40
2022-08-13T15:11:06.868Z,24.50
2022-08-13T15:13:55.557Z,23.70
2022-08-13T15:16:32.272Z,23.30
2022-08-13T15:19:10.183Z,23.00
2022-08-13T15:21:47.185Z,22.90
2022-08-13T15:24:37.709Z,22.80
2022-08-13T15:27:34.018Z,23.00
2022-08-13T15:30:06.439Z,22.90
2022-08-13T15:32:34.694Z,22.70
2022-08-13T15:35:02.780Z,22.60
2022-08-13T15:37:56.758Z,22.50
2022-08-13T15:40:21.831Z,22.30
2022-08-13T15:42:49.851Z,22.20
2022-08-13T15:45:19.788Z,22.30
2022-08-13T15:47:51.077Z,22.40
2022-08-13T15:50:18.946Z,22.50
2022-08-13T15:52:46.291Z,22.60
2022-08-13T15:55:13.229Z,22.60
2022-08-13T15:57:45.667Z,22.70
2022-08-13T16:00:18.896Z,22.90
2022-08-13T16:02:57.228Z,23.00
2022-08-13T16:05:29.754Z,23.10
2022-08-13T16:08:08.076Z,23.20
2022-08-13T16:10:37.925Z,23.20
2022-08-13T16:13:10.749Z,23.40
2022-08-13T16:15:51.470Z,23.60
2022-08-13T16:18:35.018Z,23.90
2022-08-13T16:21:02.177Z,24.10
2022-08-13T16:23:42.043Z,24.00
2022-08-13T16:26:09.468Z,24.20
2022-08-13T16:28:37.861Z,24.60
2022-08-13T16:31:10.207Z,24.80
2022-08-13T16:33:51.423Z,25.00
2022-08-13T16:36:22.413Z,24.90
2022-08-13T16:38:50.864Z,25.00
2022-08-13T16:41:18.354Z,24.60
2022-08-13T16:43:59.474Z,24.30
2022-08-13T16:46:34.447Z,24.00
2022-08-13T16:49:07.462Z,23.90
2022-08-13T16:51:39.406Z,24.00
2022-08-13T16:54:37.556Z,23.90
2022-08-13T16:56:59.079Z,23.90
2022-08-13T16:59:26.112Z,24.00
2022-08-13T17:01:55.844Z,24.00
2022-08-13T17:05:18.375Z,24.10
2022-08-13T17:07:47.547Z,23.90
2022-08-13T17:10:15.805Z,23.60
2022-08-13T17:12:44.999Z,23.40
2022-08-13T17:15:17.643Z,23.40
2022-08-13T17:17:54.858Z,23.50
2022-08-13T17:20:23.709Z,23.60
2022-08-13T17:22:57.163Z,23.60
2022-08-13T17:25:26.172Z,23.50
2022-08-13T17:27:58.441Z,23.60
2022-08-13T17:30:29.390Z,23.70
2022-08-13T17:32:56.969Z,23.60
2022-08-13T17:35:24.882Z,23.60
2022-08-13T17:37:58.521Z,23.70
2022-08-13T17:40:34.476Z,23.90
2022-08-13T17:44:00.308Z,24.20
2022-08-13T17:45:57.603Z,24.20
2022-08-13T17:48:58.514Z,24.10
2022-08-13T17:51:24.491Z,23.80
2022-08-13T17:53:54.081Z,23.70
2022-08-13T17:56:25.743Z,23.70
2022-08-13T17:58:57.469Z,23.80
2022-08-13T18:01:30.479Z,23.60
2022-08-13T18:04:00.796Z,23.50
2022-08-13T18:06:32.109Z,23.40
2022-08-13T18:09:14.761Z,23.40
2022-08-13T18:11:48.729Z,23.30
2022-08-13T18:14:21.536Z,23.50
2022-08-13T18:18:13.640Z,23.30
2022-08-13T18:19:48.964Z,23.10
2022-08-13T18:22:17.751Z,23.20
2022-08-13T18:24:47.115Z,23.40
2022-08-13T18:27:23.132Z,23.50
2022-08-13T18:30:00.385Z,23.60
2022-08-13T18:32:32.294Z,23.70
2022-08-13T18:35:00.732Z,23.70
2022-08-13T18:37:38.256Z,23.70
2022-08-13T18:40:15.064Z,23.80
2022-08-13T18:42:42.868Z,23.80
2022-08-13T18:45:24.653Z,23.90
2022-08-13T18:48:03.128Z,23.90
2022-08-13T18:50:50.362Z,23.70
2022-08-13T18:53:33.638Z,23.60
2022-08-13T18:56:13.730Z,23.70
2022-08-13T18:58:43.231Z,23.60
2022-08-13T19:01:15.562Z,23.70
2022-08-13T19:03:58.824Z,23.50
2022-08-13T19:06:31.442Z,23.70
2022-08-13T19:09:02.167Z,23.90
2022-08-13T19:11:44.647Z,23.90
2022-08-13T19:14:14.638Z,24.00
2022-08-13T19:16:41.445Z,24.00
2022-08-13T19:19:17.772Z,23.90
2022-08-13T19:21:54.138Z,23.80
2022-08-13T19:24:28.356Z,23.70
2022-08-13T19:26:58.987Z,23.60
2022-08-13T19:29:27.719Z,23.10
2022-08-13T19:31:54.985Z,23.10
2022-08-13T19:34:29.389Z,23.20
2022-08-13T19:37:02.231Z,23.30
2022-08-13T19:39:43.625Z,23.20
2022-08-13T19:42:12.537Z,23.20
2022-08-13T19:44:39.593Z,23.20
2022-08-13T19:47:12.458Z,22.90
2022-08-13T19:49:55.899Z,22.80
2022-08-13T19:52:28.466Z,22.90
2022-08-13T19:55:00.954Z,22.80
2022-08-13T19:57:31.906Z,22.70
2022-08-13T20:00:15.938Z,22.70
2022-08-13T20:02:51.794Z,22.60
2022-08-13T20:05:51.173Z,22.50
2022-08-13T20:08:34.150Z,22.40
2022-08-13T20:11:06.967Z,22.60
2022-08-13T20:13:54.611Z,22.60
2022-08-13T20:16:26.493Z,22.40
2022-08-13T20:18:55.489Z,22.30
2022-08-13T20:21:48.412Z,22.40
2022-08-13T20:25:46.098Z,22.40
2022-08-13T20:27:43.097Z,22.30
2022-08-13T20:29:57.759Z,22.40
2022-08-13T20:32:33.842Z,22.40
2022-08-13T20:35:24.245Z,22.20
2022-08-13T20:37:53.214Z,22.30
2022-08-13T20:40:23.091Z,22.10
2022-08-13T20:42:58.332Z,22.40
2022-08-13T20:45:43.067Z,22.60
2022-08-13T20:48:27.523Z,22.60
2022-08-13T20:51:04.346Z,22.60
2022-08-13T20:53:37.284Z,22.60
2022-08-13T20:56:09.970Z,22.80
2022-08-13T21:00:47.907Z,22.90
2022-08-13T21:01:31.144Z,23.00
2022-08-13T21:03:58.758Z,22.70
2022-08-13T21:06:28.217Z,22.80
2022-08-13T21:08:55.355Z,22.90
2022-08-13T21:11:23.875Z,22.70
2022-08-13T21:13:51.730Z,22.30
2022-08-13T21:16:33.377Z,22.20
2022-08-13T21:21:58.441Z,22.80
2022-08-13T21:24:35.892Z,22.90
2022-08-13T21:27:24.796Z,22.80
2022-08-13T21:29:56.505Z,22.40
2022-08-13T21:32:51.976Z,22.00
2022-08-13T21:35:21.464Z,22.10
2022-08-13T21:37:50.065Z,22.00
2022-08-13T21:40:20.179Z,22.00
2022-08-13T21:42:55.358Z,21.90
2022-08-13T21:45:23.908Z,22.00
2022-08-13T21:47:51.227Z,22.00
2022-08-13T21:50:25.317Z,22.00
2022-08-13T21:52:59.560Z,22.00
2022-08-13T21:55:28.264Z,21.80
2022-08-13T21:58:01.556Z,21.40
2022-08-13T22:00:32.327Z,21.30
2022-08-13T22:03:05.893Z,21.40
2022-08-13T22:05:59.786Z,21.50
2022-08-13T22:08:29.287Z,21.50
2022-08-13T22:10:58.257Z,21.60
2022-08-13T22:13:28.329Z,21.60
2022-08-13T22:16:04.746Z,21.50
2022-08-13T22:18:37.240Z,21.40
2022-08-13T22:21:07.222Z,21.30
2022-08-13T22:23:34.554Z,21.30
2022-08-13T22:26:02.938Z,21.40
2022-08-13T22:28:50.550Z,21.30
2022-08-13T22:31:20.297Z,21.50
2022-08-13T22:34:01.613Z,21.50
2022-08-13T22:36:31.894Z,21.60
2022-08-13T22:39:07.684Z,21.60
2022-08-13T22:41:36.330Z,21.70
2022-08-13T22:44:09.700Z,21.90
2022-08-13T22:46:39.043Z,22.00
2022-08-13T22:49:10.649Z,22.00
2022-08-13T22:51:37.894Z,21.80
2022-08-13T22:54:05.222Z,21.80
2022-08-13T22:56:36.298Z,21.90
2022-08-13T22:59:10.635Z,21.90
2022-08-13T23:01:40.988Z,21.80
2022-08-13T23:04:11.186Z,21.80
2022-08-13T23:06:47.998Z,21.70
2022-08-13T23:09:15.241Z,21.70
2022-08-13T23:11:42.170Z,21.50
2022-08-13T23:14:09.319Z,21.30
2022-08-13T23:16:36.911Z,21.40
2022-08-13T23:19:04.490Z,21.20
2022-08-13T23:21:31.274Z,21.30
2022-08-13T23:23:58.800Z,21.20
2022-08-13T23:26:30.215Z,21.10
2022-08-13T23:29:02.301Z,21.10
2022-08-13T23:31:31.058Z,21.10
2022-08-13T23:34:01.741Z,21.00
2022-08-13T23:36:33.964Z,20.90
2022-08-13T23:39:00.781Z,20.80
2022-08-13T23:41:28.068Z,20.90
2022-08-13T23:44:10.120Z,20.90
2022-08-13T23:46:51.865Z,20.90
2022-08-13T23:49:23.175Z,20.90
2022-08-13T23:51:53.219Z,20.80
2022-08-13T23:54:23.643Z,20.80
2022-08-13T23:56:53.943Z,20.70
2022-08-13T23:59:27.841Z,20.70
